createdAt,value
2022-09-22T00:00:57.497Z,13.21
2022-09-22T00:03:23.768Z,13.26
2022-09-22T00:05:50.087Z,13.26
2022-09-22T00:08:16.457Z,13.18
2022-09-22T00:10:42.776Z,13.04
2022-09-22T00:13:09.118Z,13.01
2022-09-22T00:15:35.442Z,13.06
2022-09-22T00:18:01.781Z,13.04
2022-09-22T00:20:28.141Z,13.05
2022-09-22T00:22:54.521Z,13.07
2022-09-22T00:25:20.841Z,13.03
2022-09-22T00:27:47.165Z,12.91
2022-09-22T00:30:13.488Z,12.85
2022-09-22T00:32:39.824Z,12.82
2022-09-22T00:35:06.168Z,12.84
2022-09-22T00:37:32.503Z,12.74
2022-09-22T00:39:58.842Z,12.73
2022-09-22T00:42:25.167Z,12.72
2022-09-22T00:44:51.481Z,12.68
2022-09-22T00:47:17.801Z,12.66
2022-09-22T00:49:44.144Z,12.62
2022-09-22T00:52:10.461Z,12.64
2022-09-22T00:54:36.850Z,12.64
2022-09-22T00:57:03.167Z,12.62
2022-09-22T00:59:29.515Z,12.59
2022-09-22T01:01:55.899Z,12.51
2022-09-22T01:04:22.164Z,12.54
2022-09-22T01:06:48.505Z,12.56
2022-09-22T01:09:14.829Z,12.51
2022-09-22T01:11:41.152Z,12.53
2022-09-22T01:14:07.524Z,12.52
2022-09-22T01:16:33.860Z,12.58
2022-09-22T01:19:00.179Z,12.58
2022-09-22T01:21:26.524Z,12.55
2022-09-22T01:23:52.843Z,12.60
2022-09-22T01:26:19.182Z,12.74
2022-09-22T01:28:45.511Z,12.80
2022-09-22T01:31:11.882Z,12.79
2022-09-22T01:33:38.178Z,12.77
2022-09-22T01:36:04.555Z,12.75
2022-09-22T01:38:30.900Z,12.64
2022-09-22T01:40:57.214Z,12.61
2022-09-22T01:43:23.537Z,12.53
2022-09-22T01:45:49.879Z,12.55
2022-09-22T01:48:16.198Z,12.52
2022-09-22T01:50:42.536Z,12.48
2022-09-22T01:53:08.892Z,12.40
2022-09-22T01:55:35.208Z,12.39
2022-09-22T01:58:01.536Z,12.35
2022-09-22T02:00:27.877Z,12.25
2022-09-22T02:02:54.299Z,12.23
2022-09-22T02:05:20.533Z,12.16
2022-09-22T02:07:46.878Z,12.21
2022-09-22T02:10:13.212Z,12.27
2022-09-22T02:12:39.532Z,12.27
2022-09-22T02:15:05.870Z,12.26
2022-09-22T02:17:35.245Z,12.24
2022-09-22T02:19:58.543Z,12.21
2022-09-22T02:22:24.860Z,12.16
2022-09-22T02:24:51.175Z,12.09
2022-09-22T02:27:17.515Z,11.91
2022-09-22T02:29:43.856Z,11.80
2022-09-22T02:32:10.238Z,11.79
2022-09-22T02:34:36.526Z,11.76
2022-09-22T02:37:02.862Z,11.66
2022-09-22T02:39:29.241Z,11.65
2022-09-22T02:41:55.555Z,11.77
2022-09-22T02:44:21.891Z,11.79
2022-09-22T02:46:48.210Z,11.82
2022-09-22T02:49:14.547Z,11.82
2022-09-22T02:51:40.885Z,11.83
2022-09-22T02:54:07.282Z,11.82
2022-09-22T02:56:33.542Z,11.80
2022-09-22T02:58:59.875Z,11.77
2022-09-22T03:01:26.283Z,11.74
2022-09-22T03:03:52.545Z,11.72
2022-09-22T03:06:18.866Z,11.70
2022-09-22T03:08:45.179Z,11.67
2022-09-22T03:11:11.499Z,11.69
2022-09-22T03:13:37.845Z,11.69
2022-09-22T03:16:04.205Z,11.69
2022-09-22T03:18:30.512Z,11.69
2022-09-22T03:20:56.833Z,11.67
2022-09-22T03:23:23.153Z,11.65
2022-09-22T03:25:49.495Z,11.65
2022-09-22T03:28:15.831Z,11.65
2022-09-22T03:30:42.182Z,11.64
2022-09-22T03:33:08.488Z,11.63
2022-09-22T03:35:34.856Z,11.62
2022-09-22T03:38:01.173Z,11.61
2022-09-22T03:40:27.564Z,11.58
2022-09-22T03:42:53.857Z,11.56
2022-09-22T03:45:20.167Z,11.56
2022-09-22T03:47:46.505Z,11.56
2022-09-22T03:50:12.845Z,11.54
2022-09-22T03:52:39.180Z,11.50
2022-09-22T03:55:05.518Z,11.49
2022-09-22T03:57:31.856Z,11.49
2022-09-22T03:59:58.193Z,11.47
2022-09-22T04:02:24.604Z,11.46
2022-09-22T04:04:50.867Z,11.43
2022-09-22T04:07:17.181Z,11.40
2022-09-22T04:09:43.509Z,11.41
2022-09-22T04:12:09.864Z,11.41
2022-09-22T04:14:36.184Z,11.42
2022-09-22T04:17:02.531Z,11.42
2022-09-22T04:19:28.845Z,11.43
2022-09-22T04:21:57.372Z,11.42
2022-09-22T04:24:21.510Z,11.44
2022-09-22T04:27:15.191Z,11.46
2022-09-22T04:29:14.175Z,11.48
2022-09-22T04:31:40.552Z,11.51
2022-09-22T04:34:07.725Z,11.55
2022-09-22T04:36:33.228Z,11.61
2022-09-22T04:38:59.584Z,11.67
2022-09-22T04:41:25.885Z,11.71
2022-09-22T04:43:52.229Z,11.77
2022-09-22T04:46:18.575Z,11.81
2022-09-22T04:48:44.892Z,11.84
2022-09-22T04:51:11.209Z,11.88
2022-09-22T04:53:37.555Z,11.90
2022-09-22T04:56:03.869Z,11.92
2022-09-22T04:58:30.224Z,11.94
2022-09-22T05:00:56.587Z,11.99
2022-09-22T05:03:22.940Z,12.00
2022-09-22T05:05:49.200Z,11.99
2022-09-22T05:08:15.544Z,12.00
2022-09-22T05:10:41.861Z,12.02
2022-09-22T05:13:08.206Z,12.04
2022-09-22T05:15:34.581Z,12.11
2022-09-22T05:18:00.859Z,12.28
2022-09-22T05:20:27.200Z,12.40
2022-09-22T05:22:53.550Z,12.43
2022-09-22T05:25:19.867Z,12.42
2022-09-22T05:27:46.190Z,12.39
2022-09-22T05:30:12.530Z,12.35
2022-09-22T05:32:38.850Z,12.31
2022-09-22T05:35:05.187Z,12.29
2022-09-22T05:37:31.508Z,12.27
2022-09-22T05:39:57.850Z,12.27
2022-09-22T05:42:24.190Z,12.27
2022-09-22T05:44:50.503Z,12.28
2022-09-22T05:47:16.830Z,12.29
2022-09-22T05:49:43.171Z,12.34
2022-09-22T05:52:09.497Z,12.40
2022-09-22T05:54:35.835Z,12.56
2022-09-22T05:57:02.176Z,12.58
2022-09-22T05:59:28.517Z,12.59
2022-09-22T06:01:59.337Z,12.64
2022-09-22T06:04:21.156Z,12.66
2022-09-22T06:06:47.484Z,12.72
2022-09-22T06:09:13.822Z,12.76
2022-09-22T06:11:40.181Z,12.78
2022-09-22T06:14:06.522Z,12.86
2022-09-22T06:16:32.878Z,12.98
2022-09-22T06:18:59.179Z,13.19
2022-09-22T06:21:25.517Z,13.56
2022-09-22T06:23:51.832Z,13.79
2022-09-22T06:26:18.187Z,14.02
2022-09-22T06:28:44.526Z,14.26
2022-09-22T06:31:10.853Z,14.56
2022-09-22T06:33:37.190Z,14.84
2022-09-22T06:36:03.531Z,14.96
2022-09-22T06:38:29.855Z,15.01
2022-09-22T06:40:56.226Z,15.24
2022-09-22T06:43:22.522Z,15.33
2022-09-22T06:45:48.887Z,15.65
2022-09-22T06:48:15.192Z,15.88
2022-09-22T06:50:41.513Z,15.98
2022-09-22T06:53:07.854Z,15.99
2022-09-22T06:55:34.178Z,15.96
2022-09-22T06:58:00.497Z,15.94
2022-09-22T07:00:26.842Z,16.26
2022-09-22T07:02:53.161Z,16.69
2022-09-22T07:05:19.507Z,17.17
2022-09-22T07:07:45.847Z,17.68
2022-09-22T07:10:12.187Z,18.00
2022-09-22T07:12:38.506Z,18.25
2022-09-22T07:15:04.849Z,18.58
2022-09-22T07:17:31.196Z,18.91
2022-09-22T07:19:57.527Z,19.17
2022-09-22T07:22:23.867Z,19.44
2022-09-22T07:24:50.189Z,19.72
2022-09-22T07:27:16.509Z,20.02
2022-09-22T07:29:42.841Z,20.29
2022-09-22T07:32:09.221Z,20.58
2022-09-22T07:34:35.571Z,20.82
2022-09-22T07:37:01.885Z,21.03
2022-09-22T07:39:28.229Z,21.26
2022-09-22T07:41:54.571Z,21.50
2022-09-22T07:44:20.889Z,21.73
2022-09-22T07:46:47.331Z,21.95
2022-09-22T07:49:13.589Z,22.12
2022-09-22T07:51:39.924Z,22.33
2022-09-22T07:54:06.335Z,22.50
2022-09-22T07:56:32.594Z,22.64
2022-09-22T07:58:58.926Z,22.77
2022-09-22T08:01:25.276Z,22.98
2022-09-22T08:03:51.591Z,23.15
2022-09-22T08:06:18.449Z,23.35
2022-09-22T08:08:44.280Z,23.54
2022-09-22T08:11:10.598Z,23.74
2022-09-22T08:13:36.941Z,23.88
2022-09-22T08:16:03.341Z,23.96
2022-09-22T08:18:29.621Z,24.16
2022-09-22T08:20:55.963Z,24.36
2022-09-22T08:23:22.287Z,24.36
2022-09-22T08:25:48.607Z,24.08
2022-09-22T08:28:14.929Z,23.64
2022-09-22T08:30:41.274Z,23.21
2022-09-22T08:33:07.614Z,23.07
2022-09-22T08:35:33.929Z,23.20
2022-09-22T08:38:00.295Z,23.50
2022-09-22T08:40:26.677Z,23.92
2022-09-22T08:42:52.975Z,24.33
2022-09-22T08:45:21.432Z,24.69
2022-09-22T08:47:45.676Z,24.96
2022-09-22T08:50:11.994Z,25.18
2022-09-22T08:52:38.316Z,25.36
2022-09-22T08:55:04.658Z,25.47
2022-09-22T08:57:30.990Z,25.61
2022-09-22T08:59:57.319Z,25.83
2022-09-22T09:02:23.712Z,25.96
2022-09-22T09:04:49.987Z,26.16
2022-09-22T09:07:16.321Z,26.38
2022-09-22T09:09:42.665Z,26.66
2022-09-22T09:12:09.007Z,26.70
2022-09-22T09:14:35.344Z,26.86
2022-09-22T09:17:01.659Z,27.06
2022-09-22T09:19:28.004Z,26.88
2022-09-22T09:21:54.321Z,26.69
2022-09-22T09:26:47.029Z,26.90
2022-09-22T09:29:13.370Z,27.07
2022-09-22T09:31:39.707Z,27.31
2022-09-22T09:34:06.087Z,27.59
2022-09-22T09:36:32.388Z,27.87
2022-09-22T09:38:58.714Z,28.07
2022-09-22T09:41:25.052Z,27.65
2022-09-22T09:43:53.172Z,27.18
2022-09-22T09:46:17.822Z,26.78
2022-09-22T09:48:44.134Z,26.42
2022-09-22T09:51:10.469Z,26.04
2022-09-22T09:53:41.152Z,25.74
2022-09-22T09:56:03.130Z,25.40
2022-09-22T09:58:29.465Z,25.32
2022-09-22T10:00:55.801Z,25.58
2022-09-22T10:03:22.216Z,26.05
2022-09-22T10:05:48.458Z,26.55
2022-09-22T10:08:14.833Z,26.98
2022-09-22T10:10:41.156Z,27.33
2022-09-22T10:13:07.479Z,27.46
2022-09-22T10:15:33.850Z,27.61
2022-09-22T10:18:00.147Z,27.71
2022-09-22T10:20:26.519Z,27.70
2022-09-22T10:22:52.829Z,27.62
2022-09-22T10:25:19.148Z,27.40
2022-09-22T10:27:45.489Z,26.95
2022-09-22T10:30:11.834Z,26.32
2022-09-22T10:32:38.177Z,25.96
2022-09-22T10:35:04.496Z,25.73
2022-09-22T10:37:30.858Z,25.48
2022-09-22T10:39:57.175Z,25.26
2022-09-22T10:42:23.497Z,25.21
2022-09-22T10:44:49.821Z,25.49
2022-09-22T10:47:16.165Z,25.62
2022-09-22T10:49:42.500Z,25.48
2022-09-22T10:52:08.876Z,25.23
2022-09-22T10:54:35.190Z,25.07
2022-09-22T10:57:01.539Z,24.86
2022-09-22T10:59:27.855Z,24.63
2022-09-22T11:01:54.225Z,24.43
2022-09-22T11:04:20.518Z,24.23
2022-09-22T11:06:46.826Z,24.00
2022-09-22T11:09:13.145Z,23.88
2022-09-22T11:11:39.873Z,23.94
2022-09-22T11:14:05.894Z,24.38
2022-09-22T11:16:32.159Z,24.89
2022-09-22T11:18:58.498Z,25.31
2022-09-22T11:21:24.845Z,25.41
2022-09-22T11:23:51.233Z,25.32
2022-09-22T11:26:17.560Z,25.19
2022-09-22T11:28:43.895Z,25.36
2022-09-22T11:31:10.292Z,25.41
2022-09-22T11:33:36.577Z,25.33
2022-09-22T11:36:02.928Z,25.24
2022-09-22T11:38:29.247Z,25.30
2022-09-22T11:43:21.918Z,25.51
2022-09-22T11:45:48.302Z,25.52
2022-09-22T11:48:14.564Z,25.51
2022-09-22T11:50:40.925Z,25.46
2022-09-22T11:53:07.263Z,25.26
2022-09-22T11:55:33.586Z,24.98
2022-09-22T11:57:59.928Z,24.68
2022-09-22T12:00:26.280Z,24.47
2022-09-22T12:02:52.738Z,24.48
2022-09-22T12:05:19.030Z,24.73
2022-09-22T12:07:45.369Z,25.03
2022-09-22T12:10:11.718Z,25.29
2022-09-22T12:12:38.029Z,25.47
2022-09-22T12:15:04.410Z,25.62
2022-09-22T12:17:30.702Z,25.79
2022-09-22T12:19:57.049Z,25.94
2022-09-22T12:22:23.423Z,26.01
2022-09-22T12:24:49.744Z,26.03
2022-09-22T12:27:16.061Z,25.95
2022-09-22T12:29:42.426Z,25.68
2022-09-22T12:32:08.765Z,25.42
2022-09-22T12:34:35.086Z,25.13
2022-09-22T12:37:01.431Z,24.81
2022-09-22T12:39:27.771Z,24.53
2022-09-22T12:41:54.087Z,24.32
2022-09-22T12:44:20.422Z,24.12
2022-09-22T12:46:46.740Z,24.03
2022-09-22T12:49:13.077Z,23.95
2022-09-22T12:51:39.419Z,23.84
2022-09-22T12:54:05.854Z,23.71
2022-09-22T12:56:32.099Z,23.55
2022-09-22T12:58:58.425Z,23.44
2022-09-22T13:01:24.882Z,23.41
2022-09-22T13:03:51.173Z,23.54
2022-09-22T13:06:17.515Z,23.63
2022-09-22T13:08:43.835Z,23.72
2022-09-22T13:11:10.177Z,23.77
2022-09-22T13:13:36.499Z,23.82
2022-09-22T13:16:02.819Z,23.79
2022-09-22T13:18:29.203Z,23.72
2022-09-22T13:20:55.519Z,23.57
2022-09-22T13:23:21.890Z,23.42
2022-09-22T13:25:48.206Z,23.34
2022-09-22T13:28:14.533Z,23.23
2022-09-22T13:30:40.921Z,23.17
2022-09-22T13:33:07.192Z,23.12
2022-09-22T13:35:33.514Z,23.06
2022-09-22T13:37:59.835Z,23.01
2022-09-22T13:40:26.260Z,22.87
2022-09-22T13:42:52.560Z,22.64
2022-09-22T13:45:18.901Z,22.49
2022-09-22T13:47:45.240Z,22.33
2022-09-22T13:50:11.554Z,22.17
2022-09-22T13:52:37.887Z,22.05
2022-09-22T13:55:04.205Z,21.94
2022-09-22T13:57:30.550Z,21.85
2022-09-22T13:59:56.872Z,21.77
2022-09-22T14:02:25.962Z,21.70
2022-09-22T14:04:49.534Z,21.69
2022-09-22T14:07:15.878Z,21.70
2022-09-22T14:09:42.214Z,21.70
2022-09-22T14:12:08.595Z,21.67
2022-09-22T14:14:34.906Z,21.63
2022-09-22T14:17:01.250Z,21.61
2022-09-22T14:19:27.591Z,21.60
2022-09-22T14:21:53.929Z,21.60
2022-09-22T14:24:20.340Z,21.59
2022-09-22T14:26:46.680Z,21.59
2022-09-22T14:29:12.994Z,21.58
2022-09-22T14:31:39.389Z,21.55
2022-09-22T14:34:05.721Z,21.48
2022-09-22T14:36:32.036Z,21.43
2022-09-22T14:39:08.804Z,21.39
2022-09-22T14:41:24.739Z,21.33
2022-09-22T14:43:51.051Z,21.25
2022-09-22T14:46:17.475Z,21.20
2022-09-22T14:48:43.697Z,21.16
2022-09-22T14:51:10.053Z,21.09
2022-09-22T14:53:36.390Z,21.01
2022-09-22T14:56:02.730Z,20.94
2022-09-22T14:58:29.103Z,20.90
2022-09-22T15:00:55.490Z,20.83
2022-09-22T15:03:21.756Z,20.76
2022-09-22T15:05:48.101Z,20.68
2022-09-22T15:08:14.249Z,20.62
2022-09-22T15:10:40.595Z,20.59
2022-09-22T15:13:06.931Z,20.52
2022-09-22T15:15:33.259Z,20.48
2022-09-22T15:17:59.573Z,20.42
2022-09-22T15:20:25.902Z,20.34
2022-09-22T15:22:52.223Z,20.31
2022-09-22T15:25:18.568Z,20.24
2022-09-22T15:27:44.910Z,20.16
2022-09-22T15:30:11.232Z,20.12
2022-09-22T15:32:37.579Z,20.08
2022-09-22T15:35:03.924Z,20.02
2022-09-22T15:37:30.237Z,19.98
2022-09-22T15:39:56.601Z,19.92
2022-09-22T15:42:23.137Z,19.86
2022-09-22T15:44:49.478Z,19.83
2022-09-22T15:47:15.799Z,19.80
2022-09-22T15:49:42.146Z,19.77
2022-09-22T15:52:08.466Z,19.72
2022-09-22T15:54:34.828Z,19.68
2022-09-22T15:57:01.166Z,19.63
2022-09-22T15:59:27.527Z,19.55
2022-09-22T16:01:53.873Z,19.47
2022-09-22T16:04:20.234Z,19.38
2022-09-22T16:06:46.534Z,19.32
2022-09-22T16:09:12.898Z,19.26
2022-09-22T16:11:39.242Z,19.19
2022-09-22T16:14:05.586Z,19.11
2022-09-22T16:16:31.954Z,19.05
2022-09-22T16:18:58.224Z,19.00
2022-09-22T16:21:24.542Z,18.95
2022-09-22T16:23:50.893Z,18.90
2022-09-22T16:26:17.231Z,18.85
2022-09-22T16:28:43.575Z,18.80
2022-09-22T16:31:09.967Z,18.71
2022-09-22T16:33:36.258Z,18.64
2022-09-22T16:36:02.600Z,18.60
2022-09-22T16:38:28.946Z,18.55
2022-09-22T16:40:55.283Z,18.50
2022-09-22T16:43:21.602Z,18.47
2022-09-22T16:45:47.967Z,18.44
2022-09-22T16:48:14.306Z,18.40
2022-09-22T16:50:40.641Z,18.35
2022-09-22T16:53:06.997Z,18.31
2022-09-22T16:55:37.219Z,18.20
2022-09-22T16:57:59.658Z,18.16
2022-09-22T17:00:26.040Z,18.11
2022-09-22T17:02:52.330Z,18.05
2022-09-22T17:05:18.667Z,18.02
2022-09-22T17:07:44.988Z,17.98
2022-09-22T17:10:11.357Z,17.96
2022-09-22T17:12:37.723Z,17.93
2022-09-22T17:15:04.059Z,17.84
2022-09-22T17:17:30.409Z,17.78
2022-09-22T17:19:56.728Z,17.74
2022-09-22T17:22:23.072Z,17.70
2022-09-22T17:24:49.405Z,17.65
2022-09-22T17:27:15.729Z,17.60
2022-09-22T17:29:42.068Z,17.53
2022-09-22T17:32:08.408Z,17.49
2022-09-22T17:34:34.730Z,17.42
2022-09-22T17:37:01.073Z,17.42
2022-09-22T17:39:27.385Z,17.40
2022-09-22T17:41:53.714Z,17.32
2022-09-22T17:44:20.048Z,17.26
2022-09-22T17:46:46.462Z,17.17
2022-09-22T17:49:12.701Z,17.10
2022-09-22T17:51:39.029Z,17.04
2022-09-22T17:54:05.367Z,16.98
2022-09-22T17:56:31.688Z,16.98
2022-09-22T17:58:58.009Z,16.94
2022-09-22T18:01:24.403Z,16.88
2022-09-22T18:03:50.702Z,16.82
2022-09-22T18:06:17.021Z,16.76
2022-09-22T18:08:43.379Z,16.74
2022-09-22T18:11:09.722Z,16.74
2022-09-22T18:13:39.134Z,16.73
2022-09-22T18:16:02.423Z,16.72
2022-09-22T18:18:28.717Z,16.71
2022-09-22T18:20:55.040Z,16.71
2022-09-22T18:23:22.449Z,16.68
2022-09-22T18:25:47.720Z,16.62
2022-09-22T18:28:14.035Z,16.54
2022-09-22T18:30:40.357Z,16.49
2022-09-22T18:33:06.677Z,16.43
2022-09-22T18:35:33.020Z,16.41
2022-09-22T18:37:59.402Z,16.35
2022-09-22T18:40:25.737Z,16.34
2022-09-22T18:42:52.011Z,16.35
2022-09-22T18:45:18.361Z,16.31
2022-09-22T18:47:44.700Z,16.29
2022-09-22T18:50:11.049Z,16.28
2022-09-22T18:52:37.365Z,16.26
2022-09-22T18:55:03.709Z,16.25
2022-09-22T18:57:30.039Z,16.18
2022-09-22T18:59:56.386Z,16.16
2022-09-22T19:02:23.352Z,16.18
2022-09-22T19:04:49.076Z,16.18
2022-09-22T19:07:15.408Z,16.14
2022-09-22T19:09:41.727Z,16.09
2022-09-22T19:12:08.087Z,16.07
2022-09-22T19:14:34.429Z,16.05
2022-09-22T19:17:00.741Z,16.02
2022-09-22T19:19:27.079Z,15.97
2022-09-22T19:21:53.422Z,15.92
2022-09-22T19:24:19.760Z,15.91
2022-09-22T19:26:46.143Z,15.90
2022-09-22T19:29:12.459Z,15.88
2022-09-22T19:31:38.806Z,15.84
2022-09-22T19:34:05.205Z,15.78
2022-09-22T19:36:31.447Z,15.71
2022-09-22T19:38:57.806Z,15.62
2022-09-22T19:41:24.150Z,15.60
2022-09-22T19:43:50.485Z,15.60
2022-09-22T19:46:16.845Z,15.59
2022-09-22T19:48:43.137Z,15.56
2022-09-22T19:51:09.461Z,15.53
2022-09-22T19:53:35.815Z,15.51
2022-09-22T19:56:02.160Z,15.50
2022-09-22T19:58:28.475Z,15.48
2022-09-22T20:00:54.801Z,15.47
2022-09-22T20:03:21.152Z,15.45
2022-09-22T20:05:47.446Z,15.43
2022-09-22T20:08:13.782Z,15.36
2022-09-22T20:10:40.155Z,15.31
2022-09-22T20:13:06.489Z,15.29
2022-09-22T20:15:32.888Z,15.28
2022-09-22T20:17:59.204Z,15.26
2022-09-22T20:20:25.543Z,15.25
2022-09-22T20:22:51.884Z,15.21
2022-09-22T20:25:18.207Z,15.20
2022-09-22T20:27:44.528Z,15.18
2022-09-22T20:30:10.868Z,15.15
2022-09-22T20:32:37.209Z,15.15
2022-09-22T20:35:03.550Z,15.15
2022-09-22T20:37:29.886Z,15.14
2022-09-22T20:39:56.225Z,15.14
2022-09-22T20:42:22.565Z,15.13
2022-09-22T20:44:48.906Z,15.11
2022-09-22T20:47:15.222Z,15.08
2022-09-22T20:49:41.576Z,15.09
2022-09-22T20:52:07.887Z,15.09
2022-09-22T20:54:34.227Z,15.10
2022-09-22T20:57:00.545Z,15.09
2022-09-22T20:59:26.893Z,15.08
2022-09-22T21:01:53.310Z,15.06
2022-09-22T21:04:19.576Z,15.02
2022-09-22T21:06:45.895Z,15.00
2022-09-22T21:09:12.237Z,14.96
2022-09-22T21:11:38.559Z,14.93
2022-09-22T21:14:04.881Z,14.87
2022-09-22T21:16:31.254Z,14.82
2022-09-22T21:18:57.596Z,14.78
2022-09-22T21:21:23.934Z,14.78
2022-09-22T21:23:50.275Z,14.80
2022-09-22T21:26:16.590Z,14.82
2022-09-22T21:28:42.911Z,14.81
2022-09-22T21:31:09.285Z,14.82
2022-09-22T21:33:35.573Z,14.83
2022-09-22T21:36:01.908Z,14.82
2022-09-22T21:38:28.253Z,14.83
2022-09-22T21:40:54.602Z,14.82
2022-09-22T21:43:20.944Z,14.82
2022-09-22T21:45:47.301Z,14.80
2022-09-22T21:48:13.591Z,14.79
2022-09-22T21:50:39.914Z,14.74
2022-09-22T21:53:06.242Z,14.70
2022-09-22T21:55:32.590Z,14.68
2022-09-22T21:57:58.932Z,14.65
2022-09-22T22:00:50.418Z,14.67
2022-09-22T22:02:51.615Z,14.67
2022-09-22T22:05:17.958Z,14.68
2022-09-22T22:07:44.292Z,14.64
2022-09-22T22:10:10.626Z,14.63
2022-09-22T22:12:36.948Z,14.61
2022-09-22T22:15:03.289Z,14.56
2022-09-22T22:17:29.649Z,14.50
2022-09-22T22:19:55.965Z,14.47
2022-09-22T22:22:22.306Z,14.42
2022-09-22T22:24:48.664Z,14.39
2022-09-22T22:27:15.007Z,14.37
2022-09-22T22:29:41.323Z,14.33
2022-09-22T22:32:07.648Z,14.30
2022-09-22T22:34:33.987Z,14.31
2022-09-22T22:37:00.308Z,14.34
2022-09-22T22:39:26.645Z,14.33
2022-09-22T22:41:52.990Z,14.32
2022-09-22T22:44:19.324Z,14.27
2022-09-22T22:46:45.698Z,14.21
2022-09-22T22:49:12.029Z,14.18
2022-09-22T22:51:38.370Z,14.13
2022-09-22T22:54:04.724Z,14.10
2022-09-22T22:56:31.067Z,14.07
2022-09-22T22:58:57.380Z,14.06
2022-09-22T23:01:23.746Z,14.01
2022-09-22T23:03:50.040Z,14.00
2022-09-22T23:06:16.428Z,14.00
2022-09-22T23:08:42.743Z,13.99
2022-09-22T23:11:09.068Z,13.99
2022-09-22T23:13:35.433Z,13.94
2022-09-22T23:16:02.026Z,13.93
2022-09-22T23:18:28.110Z,13.92
2022-09-22T23:20:54.453Z,13.92
2022-09-22T23:23:20.793Z,13.86
2022-09-22T23:25:47.130Z,13.76
2022-09-22T23:28:13.457Z,13.71
2022-09-22T23:30:39.809Z,13.69
2022-09-22T23:33:06.130Z,13.63
2022-09-22T23:35:32.448Z,13.68
2022-09-22T23:37:58.784Z,13.69
2022-09-22T23:40:25.172Z,13.71
2022-09-22T23:42:51.470Z,13.70
2022-09-22T23:45:17.812Z,13.70
2022-09-22T23:47:44.173Z,13.61
2022-09-22T23:50:10.515Z,13.55
2022-09-22T23:52:36.851Z,13.47
2022-09-22T23:55:03.199Z,13.40
2022-09-22T23:57:29.515Z,13.35
2022-09-22T23:59:55.859Z,13.35
